sensor_id;sensor_type;location;lat;lon;timestamp;P1;durP1;ratioP1;P2;durP2;ratioP2
12990;SDS011;6560;57.692;11.958;2022-08-03T00:01:00;24.92;;;13.95;;
12990;SDS011;6560;57.692;11.958;2022-08-03T00:03:26;19.42;;;13.55;;
12990;SDS011;6560;57.692;11.958;2022-08-03T00:05:51;22.80;;;15.07;;
12990;SDS011;6560;57.692;11.958;2022-08-03T00:08:17;24.42;;;14.23;;
12990;SDS011;6560;57.692;11.958;2022-08-03T00:10:42;20.00;;;15.00;;
12990;SDS011;6560;57.692;11.958;2022-08-03T00:13:08;23.02;;;14.57;;
12990;SDS011;6560;57.692;11.958;2022-08-03T00:15:33;20.92;;;13.73;;
12990;SDS011;6560;57.692;11.958;2022-08-03T00:17:59;20.55;;;13.25;;
12990;SDS011;6560;57.692;11.958;2022-08-03T00:20:24;22.08;;;12.70;;
12990;SDS011;6560;57.692;11.958;2022-08-03T00:22:50;15.18;;;11.75;;
12990;SDS011;6560;57.692;11.958;2022-08-03T00:25:16;16.05;;;11.45;;
12990;SDS011;6560;57.692;11.958;2022-08-03T00:27:41;18.80;;;11.27;;
12990;SDS011;6560;57.692;11.958;2022-08-03T00:30:07;17.58;;;12.60;;
12990;SDS011;6560;57.692;11.958;2022-08-03T00:32:33;16.88;;;10.57;;
12990;SDS011;6560;57.692;11.958;2022-08-03T00:34:58;19.80;;;10.52;;
12990;SDS011;6560;57.692;11.958;2022-08-03T00:37:23;15.20;;;10.80;;
12990;SDS011;6560;57.692;11.958;2022-08-03T00:39:49;15.02;;;10.85;;
12990;SDS011;6560;57.692;11.958;2022-08-03T00:42:15;20.38;;;11.05;;
12990;SDS011;6560;57.692;11.958;2022-08-03T00:44:41;17.40;;;10.88;;
12990;SDS011;6560;57.692;11.958;2022-08-03T00:47:08;15.10;;;11.48;;
12990;SDS011;6560;57.692;11.958;2022-08-03T00:49:34;18.90;;;12.80;;
12990;SDS011;6560;57.692;11.958;2022-08-03T00:52:04;20.90;;;12.65;;
12990;SDS011;6560;57.692;11.958;2022-08-03T00:54:30;23.83;;;13.00;;
12990;SDS011;6560;57.692;11.958;2022-08-03T00:56:57;16.92;;;11.25;;
12990;SDS011;6560;57.692;11.958;2022-08-03T00:59:22;18.38;;;11.45;;
12990;SDS011;6560;57.692;11.958;2022-08-03T01:01:48;18.52;;;11.93;;
12990;SDS011;6560;57.692;11.958;2022-08-03T01:04:14;21.58;;;12.75;;
12990;SDS011;6560;57.692;11.958;2022-08-03T01:06:45;15.63;;;11.52;;
12990;SDS011;6560;57.692;11.958;2022-08-03T01:12:26;15.48;;;10.90;;
12990;SDS011;6560;57.692;11.958;2022-08-03T01:17:53;21.05;;;12.13;;
12990;SDS011;6560;57.692;11.958;2022-08-03T01:20:23;17.42;;;12.18;;
12990;SDS011;6560;57.692;11.958;2022-08-03T01:31:37;36.63;;;13.73;;
12990;SDS011;6560;57.692;11.958;2022-08-03T01:34:06;21.55;;;11.93;;
12990;SDS011;6560;57.692;11.958;2022-08-03T01:36:35;22.08;;;12.65;;
12990;SDS011;6560;57.692;11.958;2022-08-03T01:39:05;21.30;;;12.05;;
12990;SDS011;6560;57.692;11.958;2022-08-03T01:41:34;21.15;;;11.98;;
12990;SDS011;6560;57.692;11.958;2022-08-03T01:44:28;20.02;;;11.05;;
12990;SDS011;6560;57.692;11.958;2022-08-03T01:47:00;19.42;;;11.38;;
12990;SDS011;6560;57.692;11.958;2022-08-03T01:49:27;16.65;;;10.35;;
12990;SDS011;6560;57.692;11.958;2022-08-03T01:51:56;16.83;;;11.07;;
12990;SDS011;6560;57.692;11.958;2022-08-03T01:54:23;16.85;;;10.68;;
12990;SDS011;6560;57.692;11.958;2022-08-03T01:56:50;19.83;;;11.65;;
12990;SDS011;6560;57.692;11.958;2022-08-03T01:59:18;16.92;;;11.40;;
12990;SDS011;6560;57.692;11.958;2022-08-03T02:01:46;16.83;;;10.38;;
12990;SDS011;6560;57.692;11.958;2022-08-03T02:04:13;17.02;;;10.57;;
12990;SDS011;6560;57.692;11.958;2022-08-03T02:06:42;17.25;;;10.40;;
12990;SDS011;6560;57.692;11.958;2022-08-03T02:09:10;16.75;;;10.65;;
12990;SDS011;6560;57.692;11.958;2022-08-03T02:11:37;18.83;;;10.68;;
12990;SDS011;6560;57.692;11.958;2022-08-03T02:14:04;15.30;;;9.40;;
12990;SDS011;6560;57.692;11.958;2022-08-03T02:16:31;20.88;;;10.77;;
12990;SDS011;6560;57.692;11.958;2022-08-03T02:18:58;24.23;;;11.32;;
12990;SDS011;6560;57.692;11.958;2022-08-03T02:21:26;17.35;;;10.75;;
12990;SDS011;6560;57.692;11.958;2022-08-03T02:23:53;17.85;;;11.80;;
12990;SDS011;6560;57.692;11.958;2022-08-03T02:26:19;20.95;;;11.30;;
12990;SDS011;6560;57.692;11.958;2022-08-03T02:28:47;27.02;;;13.02;;
12990;SDS011;6560;57.692;11.958;2022-08-03T02:31:17;20.05;;;11.77;;
12990;SDS011;6560;57.692;11.958;2022-08-03T02:33:47;19.98;;;11.73;;
12990;SDS011;6560;57.692;11.958;2022-08-03T02:36:18;19.38;;;13.13;;
12990;SDS011;6560;57.692;11.958;2022-08-03T02:38:48;25.73;;;13.77;;
12990;SDS011;6560;57.692;11.958;2022-08-03T02:41:19;26.77;;;14.02;;
12990;SDS011;6560;57.692;11.958;2022-08-03T02:43:48;25.20;;;14.95;;
12990;SDS011;6560;57.692;11.958;2022-08-03T02:46:18;25.77;;;14.93;;
12990;SDS011;6560;57.692;11.958;2022-08-03T02:48:46;35.40;;;15.30;;
12990;SDS011;6560;57.692;11.958;2022-08-03T02:51:12;30.80;;;15.52;;
12990;SDS011;6560;57.692;11.958;2022-08-03T02:53:43;30.33;;;15.48;;
12990;SDS011;6560;57.692;11.958;2022-08-03T02:56:10;31.13;;;15.07;;
12990;SDS011;6560;57.692;11.958;2022-08-03T02:58:37;34.45;;;15.98;;
12990;SDS011;6560;57.692;11.958;2022-08-03T03:01:04;32.50;;;16.10;;
12990;SDS011;6560;57.692;11.958;2022-08-03T03:03:31;28.10;;;15.57;;
12990;SDS011;6560;57.692;11.958;2022-08-03T03:05:58;28.98;;;14.07;;
12990;SDS011;6560;57.692;11.958;2022-08-03T03:08:24;24.13;;;15.30;;
12990;SDS011;6560;57.692;11.958;2022-08-03T03:10:51;26.25;;;15.40;;
12990;SDS011;6560;57.692;11.958;2022-08-03T03:13:17;30.83;;;15.68;;
12990;SDS011;6560;57.692;11.958;2022-08-03T03:15:45;29.23;;;15.43;;
12990;SDS011;6560;57.692;11.958;2022-08-03T03:18:11;33.63;;;16.48;;
12990;SDS011;6560;57.692;11.958;2022-08-03T03:20:39;39.05;;;19.35;;
12990;SDS011;6560;57.692;11.958;2022-08-03T03:23:05;42.40;;;19.95;;
12990;SDS011;6560;57.692;11.958;2022-08-03T03:25:33;36.80;;;18.48;;
12990;SDS011;6560;57.692;11.958;2022-08-03T03:27:59;31.27;;;18.40;;
12990;SDS011;6560;57.692;11.958;2022-08-03T03:30:26;36.25;;;20.15;;
12990;SDS011;6560;57.692;11.958;2022-08-03T03:32:54;49.10;;;21.77;;
12990;SDS011;6560;57.692;11.958;2022-08-03T03:35:21;39.15;;;20.45;;
12990;SDS011;6560;57.692;11.958;2022-08-03T03:37:47;38.70;;;19.23;;
12990;SDS011;6560;57.692;11.958;2022-08-03T03:40:13;37.80;;;18.52;;
12990;SDS011;6560;57.692;11.958;2022-08-03T03:42:38;41.05;;;19.90;;
12990;SDS011;6560;57.692;11.958;2022-08-03T03:45:05;37.72;;;18.50;;
12990;SDS011;6560;57.692;11.958;2022-08-03T03:47:32;35.17;;;17.02;;
12990;SDS011;6560;57.692;11.958;2022-08-03T03:49:58;32.08;;;16.55;;
12990;SDS011;6560;57.692;11.958;2022-08-03T03:52:25;25.80;;;15.32;;
12990;SDS011;6560;57.692;11.958;2022-08-03T03:54:51;23.30;;;14.70;;
12990;SDS011;6560;57.692;11.958;2022-08-03T03:57:16;24.55;;;13.77;;
12990;SDS011;6560;57.692;11.958;2022-08-03T03:59:42;28.92;;;14.88;;
12990;SDS011;6560;57.692;11.958;2022-08-03T04:02:08;23.98;;;14.48;;
12990;SDS011;6560;57.692;11.958;2022-08-03T04:04:35;20.42;;;12.80;;
12990;SDS011;6560;57.692;11.958;2022-08-03T04:07:20;19.67;;;11.68;;
12990;SDS011;6560;57.692;11.958;2022-08-03T04:10:10;21.85;;;11.00;;
12990;SDS011;6560;57.692;11.958;2022-08-03T04:12:57;17.05;;;10.75;;
12990;SDS011;6560;57.692;11.958;2022-08-03T04:15:24;17.77;;;10.95;;
12990;SDS011;6560;57.692;11.958;2022-08-03T04:17:53;21.83;;;12.75;;
12990;SDS011;6560;57.692;11.958;2022-08-03T04:20:21;18.77;;;11.38;;
12990;SDS011;6560;57.692;11.958;2022-08-03T04:22:50;17.88;;;11.40;;
12990;SDS011;6560;57.692;11.958;2022-08-03T04:25:18;16.90;;;11.27;;
12990;SDS011;6560;57.692;11.958;2022-08-03T04:27:47;21.63;;;13.32;;
12990;SDS011;6560;57.692;11.958;2022-08-03T04:30:16;21.85;;;14.35;;
12990;SDS011;6560;57.692;11.958;2022-08-03T04:32:43;26.85;;;15.07;;
12990;SDS011;6560;57.692;11.958;2022-08-03T04:35:14;26.33;;;15.63;;
12990;SDS011;6560;57.692;11.958;2022-08-03T04:37:41;30.15;;;15.90;;
12990;SDS011;6560;57.692;11.958;2022-08-03T04:40:11;27.73;;;16.10;;
12990;SDS011;6560;57.692;11.958;2022-08-03T04:42:38;30.50;;;16.33;;
12990;SDS011;6560;57.692;11.958;2022-08-03T04:45:06;34.05;;;17.60;;
12990;SDS011;6560;57.692;11.958;2022-08-03T04:47:35;20.30;;;14.27;;
12990;SDS011;6560;57.692;11.958;2022-08-03T04:50:02;23.33;;;15.63;;
12990;SDS011;6560;57.692;11.958;2022-08-03T04:52:29;27.50;;;15.95;;
12990;SDS011;6560;57.692;11.958;2022-08-03T04:54:55;26.15;;;15.32;;
12990;SDS011;6560;57.692;11.958;2022-08-03T04:57:20;28.80;;;16.48;;
12990;SDS011;6560;57.692;11.958;2022-08-03T04:59:46;35.17;;;16.85;;
12990;SDS011;6560;57.692;11.958;2022-08-03T05:02:13;29.25;;;16.88;;
12990;SDS011;6560;57.692;11.958;2022-08-03T05:04:40;31.05;;;18.58;;
12990;SDS011;6560;57.692;11.958;2022-08-03T05:07:10;35.22;;;17.05;;
12990;SDS011;6560;57.692;11.958;2022-08-03T05:09:36;31.17;;;16.80;;
12990;SDS011;6560;57.692;11.958;2022-08-03T05:12:02;26.48;;;16.40;;
12990;SDS011;6560;57.692;11.958;2022-08-03T05:14:28;29.92;;;17.45;;
12990;SDS011;6560;57.692;11.958;2022-08-03T05:16:54;33.10;;;15.98;;
12990;SDS011;6560;57.692;11.958;2022-08-03T05:19:19;23.90;;;15.90;;
12990;SDS011;6560;57.692;11.958;2022-08-03T05:21:45;27.88;;;17.00;;
12990;SDS011;6560;57.692;11.958;2022-08-03T05:24:10;30.85;;;17.38;;
12990;SDS011;6560;57.692;11.958;2022-08-03T05:26:36;30.08;;;15.27;;
12990;SDS011;6560;57.692;11.958;2022-08-03T05:29:01;23.90;;;14.25;;
12990;SDS011;6560;57.692;11.958;2022-08-03T05:31:27;25.95;;;15.70;;
12990;SDS011;6560;57.692;11.958;2022-08-03T05:33:52;31.17;;;15.48;;
12990;SDS011;6560;57.692;11.958;2022-08-03T05:36:18;26.13;;;15.75;;
12990;SDS011;6560;57.692;11.958;2022-08-03T05:38:44;27.58;;;13.93;;
12990;SDS011;6560;57.692;11.958;2022-08-03T05:41:09;31.85;;;15.75;;
12990;SDS011;6560;57.692;11.958;2022-08-03T05:43:35;22.95;;;14.98;;
12990;SDS011;6560;57.692;11.958;2022-08-03T05:46:00;28.98;;;15.70;;
12990;SDS011;6560;57.692;11.958;2022-08-03T05:48:26;25.75;;;14.48;;
12990;SDS011;6560;57.692;11.958;2022-08-03T05:50:51;34.72;;;16.23;;
12990;SDS011;6560;57.692;11.958;2022-08-03T05:53:16;27.02;;;14.57;;
12990;SDS011;6560;57.692;11.958;2022-08-03T05:55:42;20.85;;;13.45;;
12990;SDS011;6560;57.692;11.958;2022-08-03T05:58:08;23.50;;;14.65;;
12990;SDS011;6560;57.692;11.958;2022-08-03T06:00:33;25.58;;;14.50;;
12990;SDS011;6560;57.692;11.958;2022-08-03T06:02:59;23.05;;;13.30;;
12990;SDS011;6560;57.692;11.958;2022-08-03T06:05:24;26.92;;;14.20;;
12990;SDS011;6560;57.692;11.958;2022-08-03T06:07:52;21.27;;;12.70;;
12990;SDS011;6560;57.692;11.958;2022-08-03T06:10:18;23.83;;;13.27;;
12990;SDS011;6560;57.692;11.958;2022-08-03T06:12:44;22.00;;;12.55;;
12990;SDS011;6560;57.692;11.958;2022-08-03T06:15:11;22.38;;;13.43;;
12990;SDS011;6560;57.692;11.958;2022-08-03T06:17:46;20.80;;;12.82;;
12990;SDS011;6560;57.692;11.958;2022-08-03T06:20:17;18.48;;;12.63;;
12990;SDS011;6560;57.692;11.958;2022-08-03T06:22:44;17.75;;;10.98;;
12990;SDS011;6560;57.692;11.958;2022-08-03T06:25:10;18.27;;;10.48;;
12990;SDS011;6560;57.692;11.958;2022-08-03T06:27:35;17.17;;;10.45;;
12990;SDS011;6560;57.692;11.958;2022-08-03T06:30:04;16.77;;;9.27;;
12990;SDS011;6560;57.692;11.958;2022-08-03T06:32:32;18.92;;;9.48;;
12990;SDS011;6560;57.692;11.958;2022-08-03T06:34:57;16.58;;;9.55;;
12990;SDS011;6560;57.692;11.958;2022-08-03T06:37:23;24.42;;;10.15;;
12990;SDS011;6560;57.692;11.958;2022-08-03T06:39:51;16.20;;;8.55;;
12990;SDS011;6560;57.692;11.958;2022-08-03T06:42:16;13.63;;;8.40;;
12990;SDS011;6560;57.692;11.958;2022-08-03T06:44:42;14.88;;;7.97;;
12990;SDS011;6560;57.692;11.958;2022-08-03T06:47:08;14.27;;;8.40;;
12990;SDS011;6560;57.692;11.958;2022-08-03T06:49:33;14.23;;;8.23;;
12990;SDS011;6560;57.692;11.958;2022-08-03T06:51:59;12.15;;;7.85;;
12990;SDS011;6560;57.692;11.958;2022-08-03T06:54:24;13.25;;;7.15;;
12990;SDS011;6560;57.692;11.958;2022-08-03T06:56:50;12.18;;;7.05;;
12990;SDS011;6560;57.692;11.958;2022-08-03T06:59:15;19.02;;;7.28;;
12990;SDS011;6560;57.692;11.958;2022-08-03T07:01:41;13.30;;;7.47;;
12990;SDS011;6560;57.692;11.958;2022-08-03T07:04:06;13.70;;;7.35;;
12990;SDS011;6560;57.692;11.958;2022-08-03T07:06:32;9.80;;;6.80;;
12990;SDS011;6560;57.692;11.958;2022-08-03T07:08:58;11.50;;;7.07;;
12990;SDS011;6560;57.692;11.958;2022-08-03T07:11:23;12.15;;;7.40;;
12990;SDS011;6560;57.692;11.958;2022-08-03T07:13:49;17.92;;;7.35;;
12990;SDS011;6560;57.692;11.958;2022-08-03T07:16:15;10.77;;;6.90;;
12990;SDS011;6560;57.692;11.958;2022-08-03T07:18:40;12.15;;;6.78;;
12990;SDS011;6560;57.692;11.958;2022-08-03T07:21:06;15.45;;;6.63;;
12990;SDS011;6560;57.692;11.958;2022-08-03T07:23:33;9.88;;;5.97;;
12990;SDS011;6560;57.692;11.958;2022-08-03T07:25:58;12.35;;;6.57;;
12990;SDS011;6560;57.692;11.958;2022-08-03T07:28:24;13.20;;;6.00;;
12990;SDS011;6560;57.692;11.958;2022-08-03T07:30:49;16.45;;;6.65;;
12990;SDS011;6560;57.692;11.958;2022-08-03T07:33:15;15.60;;;6.63;;
12990;SDS011;6560;57.692;11.958;2022-08-03T07:35:41;16.02;;;6.72;;
12990;SDS011;6560;57.692;11.958;2022-08-03T07:38:06;15.25;;;7.15;;
12990;SDS011;6560;57.692;11.958;2022-08-03T07:40:31;11.98;;;6.15;;
12990;SDS011;6560;57.692;11.958;2022-08-03T07:42:57;15.63;;;7.72;;
12990;SDS011;6560;57.692;11.958;2022-08-03T07:45:23;16.23;;;7.07;;
12990;SDS011;6560;57.692;11.958;2022-08-03T07:47:50;13.18;;;7.05;;
12990;SDS011;6560;57.692;11.958;2022-08-03T07:50:15;13.95;;;6.50;;
12990;SDS011;6560;57.692;11.958;2022-08-03T07:52:41;12.70;;;7.43;;
12990;SDS011;6560;57.692;11.958;2022-08-03T07:55:13;15.50;;;8.18;;
12990;SDS011;6560;57.692;11.958;2022-08-03T07:57:39;13.25;;;7.70;;
12990;SDS011;6560;57.692;11.958;2022-08-03T08:00:06;14.68;;;7.32;;
12990;SDS011;6560;57.692;11.958;2022-08-03T08:02:37;11.00;;;7.25;;
12990;SDS011;6560;57.692;11.958;2022-08-03T08:05:04;15.00;;;8.43;;
12990;SDS011;6560;57.692;11.958;2022-08-03T08:07:31;14.65;;;8.45;;
12990;SDS011;6560;57.692;11.958;2022-08-03T08:09:56;14.45;;;7.22;;
12990;SDS011;6560;57.692;11.958;2022-08-03T08:12:22;13.95;;;7.15;;
12990;SDS011;6560;57.692;11.958;2022-08-03T08:14:47;12.25;;;7.35;;
12990;SDS011;6560;57.692;11.958;2022-08-03T08:17:13;13.18;;;7.15;;
12990;SDS011;6560;57.692;11.958;2022-08-03T08:19:38;12.15;;;6.43;;
12990;SDS011;6560;57.692;11.958;2022-08-03T08:22:04;12.52;;;6.80;;
12990;SDS011;6560;57.692;11.958;2022-08-03T08:24:30;11.40;;;5.72;;
12990;SDS011;6560;57.692;11.958;2022-08-03T08:26:57;7.80;;;5.88;;
12990;SDS011;6560;57.692;11.958;2022-08-03T08:29:23;13.80;;;6.32;;
12990;SDS011;6560;57.692;11.958;2022-08-03T08:31:49;10.48;;;5.82;;
12990;SDS011;6560;57.692;11.958;2022-08-03T08:34:15;9.55;;;6.70;;
12990;SDS011;6560;57.692;11.958;2022-08-03T08:36:40;7.97;;;5.50;;
12990;SDS011;6560;57.692;11.958;2022-08-03T08:39:06;9.68;;;6.13;;
12990;SDS011;6560;57.692;11.958;2022-08-03T08:41:31;9.60;;;5.78;;
12990;SDS011;6560;57.692;11.958;2022-08-03T08:44:00;9.18;;;5.80;;
12990;SDS011;6560;57.692;11.958;2022-08-03T08:46:26;9.75;;;6.05;;
12990;SDS011;6560;57.692;11.958;2022-08-03T08:48:56;9.48;;;5.72;;
12990;SDS011;6560;57.692;11.958;2022-08-03T08:51:26;10.18;;;6.38;;
12990;SDS011;6560;57.692;11.958;2022-08-03T08:53:53;7.80;;;5.43;;
12990;SDS011;6560;57.692;11.958;2022-08-03T08:56:22;8.00;;;5.82;;
12990;SDS011;6560;57.692;11.958;2022-08-03T08:59:07;8.10;;;5.65;;
12990;SDS011;6560;57.692;11.958;2022-08-03T09:01:33;8.95;;;5.50;;
12990;SDS011;6560;57.692;11.958;2022-08-03T09:03:58;8.82;;;5.65;;
12990;SDS011;6560;57.692;11.958;2022-08-03T09:06:24;7.95;;;5.45;;
12990;SDS011;6560;57.692;11.958;2022-08-03T09:08:49;5.13;;;4.72;;
12990;SDS011;6560;57.692;11.958;2022-08-03T09:11:15;7.65;;;5.03;;
12990;SDS011;6560;57.692;11.958;2022-08-03T09:13:45;11.23;;;5.60;;
12990;SDS011;6560;57.692;11.958;2022-08-03T09:16:18;8.57;;;5.22;;
12990;SDS011;6560;57.692;11.958;2022-08-03T09:18:49;9.02;;;5.15;;
12990;SDS011;6560;57.692;11.958;2022-08-03T09:21:20;6.88;;;4.90;;
12990;SDS011;6560;57.692;11.958;2022-08-03T09:23:50;10.32;;;5.78;;
12990;SDS011;6560;57.692;11.958;2022-08-03T09:26:24;7.95;;;5.40;;
12990;SDS011;6560;57.692;11.958;2022-08-03T09:29:00;9.38;;;5.60;;
12990;SDS011;6560;57.692;11.958;2022-08-03T09:31:39;7.70;;;5.15;;
12990;SDS011;6560;57.692;11.958;2022-08-03T09:34:06;6.72;;;4.95;;
12990;SDS011;6560;57.692;11.958;2022-08-03T09:39:00;11.50;;;4.97;;
12990;SDS011;6560;57.692;11.958;2022-08-03T09:41:30;9.00;;;5.68;;
12990;SDS011;6560;57.692;11.958;2022-08-03T09:43:56;9.65;;;5.80;;
12990;SDS011;6560;57.692;11.958;2022-08-03T09:46:21;9.15;;;4.88;;
12990;SDS011;6560;57.692;11.958;2022-08-03T09:48:46;7.32;;;4.80;;
12990;SDS011;6560;57.692;11.958;2022-08-03T09:51:12;13.35;;;5.25;;
12990;SDS011;6560;57.692;11.958;2022-08-03T09:53:45;9.98;;;5.57;;
12990;SDS011;6560;57.692;11.958;2022-08-03T09:56:10;9.20;;;5.05;;
12990;SDS011;6560;57.692;11.958;2022-08-03T09:58:43;7.07;;;4.53;;
12990;SDS011;6560;57.692;11.958;2022-08-03T10:01:10;14.07;;;5.57;;
12990;SDS011;6560;57.692;11.958;2022-08-03T10:03:37;8.48;;;5.25;;
12990;SDS011;6560;57.692;11.958;2022-08-03T10:06:14;14.63;;;4.95;;
12990;SDS011;6560;57.692;11.958;2022-08-03T10:08:40;8.20;;;4.88;;
12990;SDS011;6560;57.692;11.958;2022-08-03T10:11:05;7.65;;;5.00;;
12990;SDS011;6560;57.692;11.958;2022-08-03T10:13:31;7.65;;;4.78;;
12990;SDS011;6560;57.692;11.958;2022-08-03T10:15:57;8.23;;;5.50;;
12990;SDS011;6560;57.692;11.958;2022-08-03T10:18:22;9.23;;;5.72;;
12990;SDS011;6560;57.692;11.958;2022-08-03T10:20:49;9.30;;;5.55;;
12990;SDS011;6560;57.692;11.958;2022-08-03T10:23:17;9.85;;;6.15;;
12990;SDS011;6560;57.692;11.958;2022-08-03T10:25:48;12.95;;;5.43;;
12990;SDS011;6560;57.692;11.958;2022-08-03T10:28:18;13.80;;;6.35;;
12990;SDS011;6560;57.692;11.958;2022-08-03T10:30:47;8.00;;;5.88;;
12990;SDS011;6560;57.692;11.958;2022-08-03T10:33:21;10.77;;;6.22;;
12990;SDS011;6560;57.692;11.958;2022-08-03T10:35:52;11.70;;;6.57;;
12990;SDS011;6560;57.692;11.958;2022-08-03T10:38:22;7.47;;;6.55;;
12990;SDS011;6560;57.692;11.958;2022-08-03T10:40:53;7.85;;;6.25;;
12990;SDS011;6560;57.692;11.958;2022-08-03T10:43:25;13.05;;;6.90;;
12990;SDS011;6560;57.692;11.958;2022-08-03T10:45:56;10.57;;;6.53;;
12990;SDS011;6560;57.692;11.958;2022-08-03T10:48:22;11.75;;;6.97;;
12990;SDS011;6560;57.692;11.958;2022-08-03T10:50:49;11.52;;;6.78;;
12990;SDS011;6560;57.692;11.958;2022-08-03T10:53:15;13.80;;;6.93;;
12990;SDS011;6560;57.692;11.958;2022-08-03T10:55:41;9.95;;;6.68;;
12990;SDS011;6560;57.692;11.958;2022-08-03T11:01:05;14.02;;;9.02;;
12990;SDS011;6560;57.692;11.958;2022-08-03T11:03:32;13.43;;;8.63;;
12990;SDS011;6560;57.692;11.958;2022-08-03T11:06:31;15.93;;;9.55;;
12990;SDS011;6560;57.692;11.958;2022-08-03T11:11:33;17.63;;;10.50;;
12990;SDS011;6560;57.692;11.958;2022-08-03T11:14:04;16.50;;;9.75;;
12990;SDS011;6560;57.692;11.958;2022-08-03T11:16:34;12.43;;;9.38;;
12990;SDS011;6560;57.692;11.958;2022-08-03T11:19:04;15.70;;;8.75;;
12990;SDS011;6560;57.692;11.958;2022-08-03T11:35:06;11.73;;;8.10;;
12990;SDS011;6560;57.692;11.958;2022-08-03T11:37:36;17.90;;;8.82;;
12990;SDS011;6560;57.692;11.958;2022-08-03T11:43:00;11.43;;;7.50;;
12990;SDS011;6560;57.692;11.958;2022-08-03T11:45:26;10.45;;;8.63;;
12990;SDS011;6560;57.692;11.958;2022-08-03T11:47:53;11.70;;;8.23;;
12990;SDS011;6560;57.692;11.958;2022-08-03T11:50:19;12.32;;;8.52;;
12990;SDS011;6560;57.692;11.958;2022-08-03T11:52:47;12.15;;;8.23;;
12990;SDS011;6560;57.692;11.958;2022-08-03T11:55:14;14.88;;;8.45;;
12990;SDS011;6560;57.692;11.958;2022-08-03T11:57:45;14.63;;;9.02;;
12990;SDS011;6560;57.692;11.958;2022-08-03T12:00:19;10.40;;;7.82;;
12990;SDS011;6560;57.692;11.958;2022-08-03T12:05:19;11.57;;;7.13;;
12990;SDS011;6560;57.692;11.958;2022-08-03T12:07:45;10.48;;;7.25;;
12990;SDS011;6560;57.692;11.958;2022-08-03T12:10:11;15.75;;;7.22;;
12990;SDS011;6560;57.692;11.958;2022-08-03T12:12:38;11.70;;;6.60;;
12990;SDS011;6560;57.692;11.958;2022-08-03T12:15:05;11.07;;;6.85;;
12990;SDS011;6560;57.692;11.958;2022-08-03T12:17:34;14.07;;;6.45;;
12990;SDS011;6560;57.692;11.958;2022-08-03T12:20:04;12.25;;;6.20;;
12990;SDS011;6560;57.692;11.958;2022-08-03T12:24:57;13.82;;;6.72;;
12990;SDS011;6560;57.692;11.958;2022-08-03T12:27:23;14.07;;;6.50;;
12990;SDS011;6560;57.692;11.958;2022-08-03T12:29:53;12.30;;;5.82;;
12990;SDS011;6560;57.692;11.958;2022-08-03T12:32:19;11.35;;;6.13;;
12990;SDS011;6560;57.692;11.958;2022-08-03T12:34:45;9.10;;;5.40;;
12990;SDS011;6560;57.692;11.958;2022-08-03T12:37:12;12.32;;;6.13;;
12990;SDS011;6560;57.692;11.958;2022-08-03T12:39:38;14.95;;;5.80;;
12990;SDS011;6560;57.692;11.958;2022-08-03T12:42:03;17.52;;;5.95;;
12990;SDS011;6560;57.692;11.958;2022-08-03T12:44:30;10.40;;;6.28;;
12990;SDS011;6560;57.692;11.958;2022-08-03T12:46:57;14.25;;;6.45;;
12990;SDS011;6560;57.692;11.958;2022-08-03T12:49:23;11.55;;;6.25;;
12990;SDS011;6560;57.692;11.958;2022-08-03T12:54:24;11.73;;;6.13;;
12990;SDS011;6560;57.692;11.958;2022-08-03T12:57:03;14.13;;;6.50;;
12990;SDS011;6560;57.692;11.958;2022-08-03T12:59:30;7.45;;;5.18;;
12990;SDS011;6560;57.692;11.958;2022-08-03T13:02:00;20.23;;;5.70;;
12990;SDS011;6560;57.692;11.958;2022-08-03T13:04:31;9.07;;;5.75;;
12990;SDS011;6560;57.692;11.958;2022-08-03T13:07:03;10.70;;;5.07;;
12990;SDS011;6560;57.692;11.958;2022-08-03T13:09:30;13.98;;;5.95;;
12990;SDS011;6560;57.692;11.958;2022-08-03T13:12:07;12.40;;;6.00;;
12990;SDS011;6560;57.692;11.958;2022-08-03T13:14:34;7.75;;;5.15;;
12990;SDS011;6560;57.692;11.958;2022-08-03T13:17:00;11.43;;;5.20;;
12990;SDS011;6560;57.692;11.958;2022-08-03T13:19:25;10.25;;;5.55;;
12990;SDS011;6560;57.692;11.958;2022-08-03T13:21:51;8.13;;;4.47;;
12990;SDS011;6560;57.692;11.958;2022-08-03T13:24:16;11.63;;;5.28;;
12990;SDS011;6560;57.692;11.958;2022-08-03T13:26:43;7.43;;;4.68;;
12990;SDS011;6560;57.692;11.958;2022-08-03T13:29:09;13.15;;;5.68;;
12990;SDS011;6560;57.692;11.958;2022-08-03T13:31:34;9.93;;;4.93;;
12990;SDS011;6560;57.692;11.958;2022-08-03T13:34:00;11.52;;;5.50;;
12990;SDS011;6560;57.692;11.958;2022-08-03T13:36:25;7.38;;;5.13;;
12990;SDS011;6560;57.692;11.958;2022-08-03T13:38:51;9.63;;;4.18;;
12990;SDS011;6560;57.692;11.958;2022-08-03T13:41:17;10.23;;;3.80;;
12990;SDS011;6560;57.692;11.958;2022-08-03T13:43:42;10.65;;;4.80;;
12990;SDS011;6560;57.692;11.958;2022-08-03T13:46:08;9.65;;;3.85;;
12990;SDS011;6560;57.692;11.958;2022-08-03T13:48:33;10.55;;;4.10;;
12990;SDS011;6560;57.692;11.958;2022-08-03T13:50:59;10.25;;;3.92;;
12990;SDS011;6560;57.692;11.958;2022-08-03T13:53:24;11.75;;;4.38;;
12990;SDS011;6560;57.692;11.958;2022-08-03T13:55:50;18.13;;;5.53;;
12990;SDS011;6560;57.692;11.958;2022-08-03T13:58:15;9.60;;;4.50;;
12990;SDS011;6560;57.692;11.958;2022-08-03T14:00:40;7.97;;;4.25;;
12990;SDS011;6560;57.692;11.958;2022-08-03T14:03:06;6.35;;;3.75;;
12990;SDS011;6560;57.692;11.958;2022-08-03T14:05:32;7.78;;;3.88;;
12990;SDS011;6560;57.692;11.958;2022-08-03T14:07:59;8.60;;;4.00;;
12990;SDS011;6560;57.692;11.958;2022-08-03T14:10:25;13.48;;;4.15;;
12990;SDS011;6560;57.692;11.958;2022-08-03T14:12:51;10.85;;;4.25;;
12990;SDS011;6560;57.692;11.958;2022-08-03T14:15:16;9.07;;;5.10;;
12990;SDS011;6560;57.692;11.958;2022-08-03T14:17:42;5.80;;;3.70;;
12990;SDS011;6560;57.692;11.958;2022-08-03T14:20:08;8.25;;;4.68;;
12990;SDS011;6560;57.692;11.958;2022-08-03T14:22:34;11.43;;;4.65;;
12990;SDS011;6560;57.692;11.958;2022-08-03T14:24:59;9.75;;;4.78;;
12990;SDS011;6560;57.692;11.958;2022-08-03T14:27:24;11.45;;;4.65;;
12990;SDS011;6560;57.692;11.958;2022-08-03T14:29:50;10.18;;;4.65;;
12990;SDS011;6560;57.692;11.958;2022-08-03T14:32:16;8.25;;;3.95;;
12990;SDS011;6560;57.692;11.958;2022-08-03T14:34:41;10.82;;;4.68;;
12990;SDS011;6560;57.692;11.958;2022-08-03T14:37:06;14.73;;;4.53;;
12990;SDS011;6560;57.692;11.958;2022-08-03T14:39:32;7.25;;;4.28;;
12990;SDS011;6560;57.692;11.958;2022-08-03T14:41:58;9.63;;;3.83;;
12990;SDS011;6560;57.692;11.958;2022-08-03T14:44:23;11.35;;;4.18;;
12990;SDS011;6560;57.692;11.958;2022-08-03T14:46:48;11.80;;;3.75;;
12990;SDS011;6560;57.692;11.958;2022-08-03T14:49:14;13.45;;;4.70;;
12990;SDS011;6560;57.692;11.958;2022-08-03T14:51:39;12.35;;;4.63;;
12990;SDS011;6560;57.692;11.958;2022-08-03T14:54:05;8.00;;;3.80;;
12990;SDS011;6560;57.692;11.958;2022-08-03T14:56:30;10.15;;;4.13;;
12990;SDS011;6560;57.692;11.958;2022-08-03T14:58:56;9.75;;;4.07;;
12990;SDS011;6560;57.692;11.958;2022-08-03T15:01:21;8.13;;;4.20;;
12990;SDS011;6560;57.692;11.958;2022-08-03T15:03:47;7.60;;;3.80;;
12990;SDS011;6560;57.692;11.958;2022-08-03T15:06:12;8.60;;;3.70;;
12990;SDS011;6560;57.692;11.958;2022-08-03T15:08:38;8.18;;;3.53;;
12990;SDS011;6560;57.692;11.958;2022-08-03T15:11:03;9.02;;;4.25;;
12990;SDS011;6560;57.692;11.958;2022-08-03T15:13:29;15.60;;;4.32;;
12990;SDS011;6560;57.692;11.958;2022-08-03T15:15:54;6.00;;;3.67;;
12990;SDS011;6560;57.692;11.958;2022-08-03T15:18:21;7.07;;;3.63;;